createdAt,value
2023-01-08T00:01:31.489Z,0.50
2023-01-08T00:06:35.592Z,0.50
2023-01-08T00:11:41.129Z,0.50
2023-01-08T00:16:44.523Z,0.50
2023-01-08T00:21:47.837Z,0.40
2023-01-08T00:26:52.625Z,0.40
2023-01-08T00:31:58.919Z,0.30
2023-01-08T00:37:04.744Z,0.50
2023-01-08T00:42:09.559Z,0.40
2023-01-08T00:47:13.413Z,0.40
2023-01-08T00:52:16.801Z,0.40
2023-01-08T00:57:21.644Z,0.40
2023-01-08T01:02:25.065Z,0.40
2023-01-08T01:07:28.432Z,0.40
2023-01-08T01:12:33.062Z,0.50
2023-01-08T01:17:43.798Z,0.50
2023-01-08T01:22:47.068Z,0.50
2023-01-08T01:27:51.766Z,0.50
2023-01-08T01:32:56.820Z,0.60
2023-01-08T01:37:59.959Z,0.60
2023-01-08T01:43:04.516Z,0.60
2023-01-08T01:48:12.343Z,0.70
2023-01-08T01:53:23.747Z,0.70
2023-01-08T01:58:30.077Z,0.80
2023-01-08T02:03:36.503Z,1.10
2023-01-08T02:08:48.897Z,1.20
2023-01-08T02:14:00.905Z,1.20
2023-01-08T02:19:15.183Z,1.20
2023-01-08T02:24:26.749Z,1.30
2023-01-08T02:29:33.691Z,1.30
2023-01-08T02:34:37.062Z,1.40
2023-01-08T02:39:53.065Z,1.40
2023-01-08T02:45:01.665Z,1.40
2023-01-08T02:50:19.698Z,1.40
2023-01-08T02:55:24.805Z,1.30
2023-01-08T03:00:30.654Z,1.30
2023-01-08T03:05:34.781Z,1.30
2023-01-08T03:10:41.040Z,1.30
2023-01-08T03:15:50.533Z,1.30
2023-01-08T03:20:54.840Z,1.30
2023-01-08T03:26:00.499Z,1.30
2023-01-08T03:31:06.288Z,1.30
2023-01-08T03:36:13.019Z,1.30
2023-01-08T03:41:22.009Z,1.30
2023-01-08T03:46:32.938Z,1.30
2023-01-08T03:51:47.360Z,1.30
2023-01-08T03:56:50.881Z,1.30
2023-01-08T04:01:55.664Z,1.20
2023-01-08T04:06:58.983Z,1.10
2023-01-08T04:12:02.269Z,1.00
2023-01-08T04:17:07.027Z,1.00
2023-01-08T04:22:11.042Z,1.00
2023-01-08T04:27:14.412Z,1.10
2023-01-08T04:32:19.081Z,1.30
2023-01-08T04:37:22.314Z,1.50
2023-01-08T04:42:25.695Z,1.70
2023-01-08T04:47:30.382Z,2.00
2023-01-08T04:52:34.909Z,2.20
2023-01-08T04:57:38.171Z,2.30
2023-01-08T05:02:42.848Z,2.40
2023-01-08T05:08:00.135Z,2.50
2023-01-08T05:13:07.184Z,2.60
2023-01-08T05:18:12.171Z,2.90
2023-01-08T05:23:16.095Z,3.00
2023-01-08T05:28:21.433Z,3.20
2023-01-08T05:33:29.608Z,3.40
2023-01-08T05:38:33.124Z,3.50
2023-01-08T05:43:36.832Z,3.80
2023-01-08T05:48:43.305Z,3.90
2023-01-08T05:53:47.647Z,4.10
2023-01-08T05:58:54.859Z,4.10
2023-01-08T06:04:01.851Z,4.30
2023-01-08T06:09:05.374Z,4.30
2023-01-08T06:14:08.619Z,4.30
2023-01-08T06:19:13.808Z,4.30
2023-01-08T06:24:17.216Z,4.40
2023-01-08T06:29:20.593Z,4.60
2023-01-08T06:34:25.352Z,5.00
2023-01-08T06:39:29.091Z,5.10
2023-01-08T06:44:32.418Z,5.30
2023-01-08T06:49:37.146Z,5.30
2023-01-08T06:54:42.238Z,5.30
2023-01-08T06:59:46.628Z,5.40
2023-01-08T07:04:52.420Z,5.40
2023-01-08T07:09:55.804Z,5.60
2023-01-08T07:14:59.143Z,5.80
2023-01-08T07:20:03.934Z,6.00
2023-01-08T07:25:08.428Z,6.10
2023-01-08T07:30:28.161Z,6.10
2023-01-08T07:35:35.638Z,6.10
2023-01-08T07:40:39.580Z,6.20
2023-01-08T07:45:43.076Z,6.20
2023-01-08T07:50:47.873Z,6.20
2023-01-08T07:55:51.166Z,6.10
2023-01-08T08:00:54.529Z,6.10
2023-01-08T08:06:01.837Z,6.00
2023-01-08T08:11:05.223Z,6.10
2023-01-08T08:16:09.072Z,6.20
2023-01-08T08:21:14.783Z,6.20
2023-01-08T08:26:19.120Z,6.30
2023-01-08T08:31:22.456Z,6.20
2023-01-08T08:36:31.049Z,6.30
2023-01-08T08:41:34.388Z,6.30
2023-01-08T08:46:39.069Z,6.30
2023-01-08T08:51:45.741Z,6.30
2023-01-08T08:56:50.275Z,6.40
2023-01-08T09:01:54.766Z,6.50
2023-01-08T09:06:59.879Z,6.50
2023-01-08T09:12:04.180Z,6.70
2023-01-08T09:17:08.681Z,6.70
2023-01-08T09:22:14.538Z,6.70
2023-01-08T09:27:24.082Z,6.70
2023-01-08T09:32:29.374Z,6.80
2023-01-08T09:37:35.283Z,6.90
2023-01-08T09:42:39.151Z,7.00
2023-01-08T09:47:45.364Z,7.10
2023-01-08T09:52:50.130Z,7.10
2023-01-08T09:57:53.695Z,7.00
2023-01-08T10:03:01.473Z,7.10
2023-01-08T10:08:07.097Z,7.30
2023-01-08T10:13:12.658Z,7.30
2023-01-08T10:18:27.101Z,7.60
2023-01-08T10:23:32.810Z,7.60
2023-01-08T10:28:36.501Z,7.70
2023-01-08T10:33:43.711Z,7.80
2023-01-08T10:38:56.118Z,8.00
2023-01-08T10:44:04.378Z,8.00
2023-01-08T10:49:08.985Z,8.20
2023-01-08T10:54:33.403Z,8.30
2023-01-08T10:59:37.930Z,8.50
2023-01-08T11:04:52.111Z,8.60
2023-01-08T11:09:57.423Z,8.80
2023-01-08T11:15:01.331Z,8.90
2023-01-08T11:20:23.042Z,9.00
2023-01-08T11:25:35.347Z,9.10
2023-01-08T11:30:41.665Z,9.00
2023-01-08T11:35:57.784Z,9.10
2023-01-08T11:41:13.057Z,9.10
2023-01-08T11:46:33.919Z,9.10
2023-01-08T11:51:48.943Z,9.40
2023-01-08T11:57:07.753Z,9.40
2023-01-08T12:02:23.725Z,9.40
2023-01-08T12:07:34.339Z,9.60
2023-01-08T12:12:52.629Z,9.70
2023-01-08T12:18:21.069Z,9.80
2023-01-08T12:23:43.603Z,9.70
2023-01-08T12:29:10.999Z,9.70
2023-01-08T12:34:21.487Z,9.80
2023-01-08T12:39:30.762Z,9.70
2023-01-08T12:44:39.271Z,9.60
2023-01-08T12:49:49.660Z,9.30
2023-01-08T12:55:00.440Z,9.20
2023-01-08T13:00:09.802Z,9.10
2023-01-08T13:05:33.441Z,8.90
2023-01-08T13:10:39.180Z,8.70
2023-01-08T13:15:44.184Z,8.70
2023-01-08T13:20:58.054Z,8.70
2023-01-08T13:26:02.700Z,8.70
2023-01-08T13:31:27.292Z,8.70
2023-01-08T13:36:32.142Z,8.80
2023-01-08T13:41:37.332Z,9.00
2023-01-08T13:46:42.238Z,9.10
2023-01-08T13:51:47.543Z,9.60
2023-01-08T13:56:56.507Z,10.20
2023-01-08T14:02:01.566Z,10.50
2023-01-08T14:07:26.494Z,10.30
2023-01-08T14:12:29.873Z,9.70
2023-01-08T14:17:36.094Z,9.30
2023-01-08T14:22:40.797Z,9.10
2023-01-08T14:27:56.666Z,9.10
2023-01-08T14:33:18.435Z,9.00
2023-01-08T14:38:23.782Z,9.00
2023-01-08T14:43:28.288Z,9.00
2023-01-08T14:48:45.719Z,8.90
2023-01-08T14:53:58.923Z,8.80
2023-01-08T14:59:10.317Z,8.70
2023-01-08T15:04:19.426Z,8.50
2023-01-08T15:09:25.055Z,8.50
2023-01-08T15:14:29.492Z,8.50
2023-01-08T15:19:39.807Z,8.50
2023-01-08T15:24:59.508Z,8.40
2023-01-08T15:30:09.547Z,8.30
2023-01-08T15:35:25.980Z,8.10
2023-01-08T15:40:29.221Z,8.00
2023-01-08T15:45:41.140Z,7.90
2023-01-08T15:50:58.191Z,7.90
2023-01-08T15:56:03.679Z,8.00
2023-01-08T16:01:15.034Z,7.80
2023-01-08T16:06:19.949Z,7.50
2023-01-08T16:11:31.179Z,7.40
2023-01-08T16:16:39.625Z,7.30
2023-01-08T16:21:47.925Z,7.30
2023-01-08T16:26:52.588Z,7.20
2023-01-08T16:31:57.090Z,7.10
2023-01-08T16:37:01.811Z,7.10
2023-01-08T16:42:05.847Z,7.10
2023-01-08T16:47:09.127Z,7.20
2023-01-08T16:52:16.416Z,7.20
2023-01-08T16:57:19.588Z,7.20
2023-01-08T17:02:52.078Z,7.30
2023-01-08T17:08:03.079Z,7.40
2023-01-08T17:13:06.461Z,7.30
2023-01-08T17:18:10.999Z,7.30
2023-01-08T17:23:20.620Z,7.10
2023-01-08T17:28:31.290Z,7.00
2023-01-08T17:33:37.903Z,7.10
2023-01-08T17:38:44.997Z,7.30
2023-01-08T17:43:54.676Z,7.30
2023-01-08T17:49:15.339Z,7.30
2023-01-08T17:54:21.508Z,7.20
2023-01-08T17:59:30.011Z,7.20
2023-01-08T18:04:36.315Z,7.20
2023-01-08T18:09:42.265Z,7.20
2023-01-08T18:14:46.742Z,7.10
2023-01-08T18:19:56.307Z,7.20
2023-01-08T18:25:06.517Z,7.30
2023-01-08T18:30:12.252Z,7.30
2023-01-08T18:35:19.727Z,7.40
2023-01-08T18:40:29.417Z,7.50
2023-01-08T18:45:35.668Z,7.60
2023-01-08T18:50:44.288Z,7.80
2023-01-08T18:55:50.683Z,7.90
2023-01-08T19:01:10.012Z,7.90
2023-01-08T19:06:17.337Z,7.80
2023-01-08T19:11:22.823Z,7.90
2023-01-08T19:16:30.204Z,7.90
2023-01-08T19:21:35.910Z,7.70
2023-01-08T19:26:47.769Z,7.70
2023-01-08T19:31:51.460Z,7.70
2023-01-08T19:36:55.345Z,7.50
2023-01-08T19:42:17.485Z,7.30
2023-01-08T19:47:58.341Z,7.20
2023-01-08T19:53:02.675Z,7.20
2023-01-08T19:58:16.897Z,7.10
2023-01-08T20:03:23.679Z,7.20
2023-01-08T20:08:28.988Z,7.00
2023-01-08T20:13:36.230Z,7.00
2023-01-08T20:18:42.800Z,6.90
2023-01-08T20:23:59.309Z,6.90
2023-01-08T20:29:18.896Z,6.80
2023-01-08T20:34:23.823Z,6.80
2023-01-08T20:39:28.235Z,6.80
2023-01-08T20:44:33.046Z,6.70
2023-01-08T20:49:36.434Z,6.70
2023-01-08T20:54:46.285Z,6.70
2023-01-08T20:59:55.057Z,6.70
2023-01-08T21:05:02.689Z,6.70
2023-01-08T21:10:09.318Z,6.70
2023-01-08T21:15:42.955Z,6.70
2023-01-08T21:20:53.445Z,6.70
2023-01-08T21:25:59.627Z,6.80
2023-01-08T21:31:10.959Z,6.80
2023-01-08T21:36:22.792Z,6.80
2023-01-08T21:41:45.988Z,6.70
2023-01-08T21:46:58.687Z,6.70
2023-01-08T21:52:39.084Z,6.70
2023-01-08T21:57:42.257Z,6.80
2023-01-08T22:02:48.455Z,6.90
2023-01-08T22:07:55.745Z,6.70
2023-01-08T22:13:04.067Z,6.60
2023-01-08T22:18:08.859Z,6.60
2023-01-08T22:23:14.185Z,6.60
2023-01-08T22:28:17.520Z,6.60
2023-01-08T22:33:23.181Z,6.70
2023-01-08T22:38:26.473Z,6.70
2023-01-08T22:43:29.877Z,6.70
2023-01-08T22:48:48.477Z,6.70
2023-01-08T22:53:53.991Z,6.90
2023-01-08T22:58:59.355Z,6.90
2023-01-08T23:04:06.573Z,6.90
2023-01-08T23:09:17.603Z,6.90
2023-01-08T23:14:24.063Z,6.80
2023-01-08T23:19:29.456Z,6.90
2023-01-08T23:24:33.032Z,6.90
2023-01-08T23:29:36.372Z,6.90
2023-01-08T23:34:46.126Z,6.80
2023-01-08T23:39:50.502Z,6.70
2023-01-08T23:44:55.868Z,6.70
2023-01-08T23:50:00.722Z,6.70
2023-01-08T23:55:04.030Z,6.70
